sensor_id;sensor_type;location;lat;lon;timestamp;P1;durP1;ratioP1;P2;durP2;ratioP2
35648;SDS011;21768;48.562;13.414;2023-08-20T00:01:30;15.63;;;10.65;;
35648;SDS011;21768;48.562;13.414;2023-08-20T00:03:55;18.17;;;10.18;;
35648;SDS011;21768;48.562;13.414;2023-08-20T00:06:21;17.33;;;10.57;;
35648;SDS011;21768;48.562;13.414;2023-08-20T00:08:47;13.77;;;10.60;;
35648;SDS011;21768;48.562;13.414;2023-08-20T00:11:13;16.23;;;10.45;;
35648;SDS011;21768;48.562;13.414;2023-08-20T00:13:39;17.33;;;10.68;;
35648;SDS011;21768;48.562;13.414;2023-08-20T00:16:05;15.82;;;11.10;;
35648;SDS011;21768;48.562;13.414;2023-08-20T00:18:30;17.30;;;11.32;;
35648;SDS011;21768;48.562;13.414;2023-08-20T00:20:56;18.33;;;11.45;;
35648;SDS011;21768;48.562;13.414;2023-08-20T00:23:22;14.70;;;11.18;;
35648;SDS011;21768;48.562;13.414;2023-08-20T00:25:48;19.52;;;11.00;;
35648;SDS011;21768;48.562;13.414;2023-08-20T00:28:14;16.65;;;11.43;;
35648;SDS011;21768;48.562;13.414;2023-08-20T00:30:39;17.58;;;10.40;;
35648;SDS011;21768;48.562;13.414;2023-08-20T00:33:05;22.40;;;10.77;;
35648;SDS011;21768;48.562;13.414;2023-08-20T00:35:31;17.00;;;11.27;;
35648;SDS011;21768;48.562;13.414;2023-08-20T00:37:56;16.45;;;10.70;;
35648;SDS011;21768;48.562;13.414;2023-08-20T00:40:22;13.95;;;10.75;;
35648;SDS011;21768;48.562;13.414;2023-08-20T00:42:47;16.63;;;11.18;;
35648;SDS011;21768;48.562;13.414;2023-08-20T00:45:13;18.02;;;11.05;;
35648;SDS011;21768;48.562;13.414;2023-08-20T00:47:38;20.20;;;11.30;;
35648;SDS011;21768;48.562;13.414;2023-08-20T00:50:05;22.20;;;11.85;;
35648;SDS011;21768;48.562;13.414;2023-08-20T00:52:32;17.00;;;10.90;;
35648;SDS011;21768;48.562;13.414;2023-08-20T00:54:58;17.23;;;11.70;;
35648;SDS011;21768;48.562;13.414;2023-08-20T00:57:24;20.05;;;11.70;;
35648;SDS011;21768;48.562;13.414;2023-08-20T00:59:50;15.25;;;11.02;;
35648;SDS011;21768;48.562;13.414;2023-08-20T01:02:16;17.58;;;11.25;;
35648;SDS011;21768;48.562;13.414;2023-08-20T01:04:43;20.20;;;11.40;;
35648;SDS011;21768;48.562;13.414;2023-08-20T01:12:19;16.70;;;11.40;;
35648;SDS011;21768;48.562;13.414;2023-08-20T01:14:45;15.05;;;11.18;;
35648;SDS011;21768;48.562;13.414;2023-08-20T01:17:10;15.45;;;11.07;;
35648;SDS011;21768;48.562;13.414;2023-08-20T01:19:35;17.83;;;11.55;;
35648;SDS011;21768;48.562;13.414;2023-08-20T01:30:40;15.20;;;11.25;;
35648;SDS011;21768;48.562;13.414;2023-08-20T01:33:08;16.45;;;10.70;;
35648;SDS011;21768;48.562;13.414;2023-08-20T01:35:34;16.17;;;11.20;;
35648;SDS011;21768;48.562;13.414;2023-08-20T01:37:59;21.73;;;11.43;;
35648;SDS011;21768;48.562;13.414;2023-08-20T01:40:25;21.02;;;11.55;;
35648;SDS011;21768;48.562;13.414;2023-08-20T01:42:50;14.95;;;11.57;;
35648;SDS011;21768;48.562;13.414;2023-08-20T01:45:15;17.35;;;11.43;;
35648;SDS011;21768;48.562;13.414;2023-08-20T01:47:41;26.15;;;13.07;;
35648;SDS011;21768;48.562;13.414;2023-08-20T01:50:06;16.40;;;11.65;;
35648;SDS011;21768;48.562;13.414;2023-08-20T01:52:32;15.70;;;11.90;;
35648;SDS011;21768;48.562;13.414;2023-08-20T01:54:57;15.98;;;12.60;;
35648;SDS011;21768;48.562;13.414;2023-08-20T01:57:23;19.58;;;12.25;;
35648;SDS011;21768;48.562;13.414;2023-08-20T01:59:48;19.50;;;12.30;;
35648;SDS011;21768;48.562;13.414;2023-08-20T02:02:14;17.17;;;13.05;;
35648;SDS011;21768;48.562;13.414;2023-08-20T02:04:39;21.17;;;12.50;;
35648;SDS011;21768;48.562;13.414;2023-08-20T02:07:04;14.95;;;12.32;;
35648;SDS011;21768;48.562;13.414;2023-08-20T02:09:30;17.83;;;13.07;;
35648;SDS011;21768;48.562;13.414;2023-08-20T02:11:55;18.75;;;12.77;;
35648;SDS011;21768;48.562;13.414;2023-08-20T02:14:20;16.67;;;12.18;;
35648;SDS011;21768;48.562;13.414;2023-08-20T02:16:46;16.52;;;12.40;;
35648;SDS011;21768;48.562;13.414;2023-08-20T02:19:11;18.73;;;11.88;;
35648;SDS011;21768;48.562;13.414;2023-08-20T02:21:37;19.30;;;11.90;;
35648;SDS011;21768;48.562;13.414;2023-08-20T02:24:02;17.63;;;12.15;;
35648;SDS011;21768;48.562;13.414;2023-08-20T02:26:28;16.02;;;12.15;;
35648;SDS011;21768;48.562;13.414;2023-08-20T02:28:53;20.15;;;11.95;;
35648;SDS011;21768;48.562;13.414;2023-08-20T02:31:19;19.50;;;13.05;;
35648;SDS011;21768;48.562;13.414;2023-08-20T02:33:44;16.52;;;12.18;;
35648;SDS011;21768;48.562;13.414;2023-08-20T02:36:09;15.18;;;12.35;;
35648;SDS011;21768;48.562;13.414;2023-08-20T02:38:35;16.45;;;12.98;;
35648;SDS011;21768;48.562;13.414;2023-08-20T02:41:01;15.40;;;12.18;;
35648;SDS011;21768;48.562;13.414;2023-08-20T02:43:28;20.55;;;13.10;;
35648;SDS011;21768;48.562;13.414;2023-08-20T02:45:54;16.40;;;13.07;;
35648;SDS011;21768;48.562;13.414;2023-08-20T02:48:19;18.55;;;12.27;;
35648;SDS011;21768;48.562;13.414;2023-08-20T02:50:44;18.27;;;12.00;;
35648;SDS011;21768;48.562;13.414;2023-08-20T02:53:10;17.63;;;12.75;;
35648;SDS011;21768;48.562;13.414;2023-08-20T02:55:35;17.17;;;12.60;;
35648;SDS011;21768;48.562;13.414;2023-08-20T02:58:01;15.50;;;12.52;;
35648;SDS011;21768;48.562;13.414;2023-08-20T03:00:28;18.90;;;12.57;;
35648;SDS011;21768;48.562;13.414;2023-08-20T03:02:54;18.52;;;11.98;;
35648;SDS011;21768;48.562;13.414;2023-08-20T03:05:20;20.75;;;12.10;;
35648;SDS011;21768;48.562;13.414;2023-08-20T03:07:45;21.05;;;12.77;;
35648;SDS011;21768;48.562;13.414;2023-08-20T03:10:11;18.60;;;13.38;;
35648;SDS011;21768;48.562;13.414;2023-08-20T03:12:37;16.25;;;12.48;;
35648;SDS011;21768;48.562;13.414;2023-08-20T03:15:02;17.58;;;11.85;;
35648;SDS011;21768;48.562;13.414;2023-08-20T03:17:28;15.88;;;12.95;;
35648;SDS011;21768;48.562;13.414;2023-08-20T03:19:54;23.42;;;11.93;;
35648;SDS011;21768;48.562;13.414;2023-08-20T03:22:21;19.33;;;11.95;;
35648;SDS011;21768;48.562;13.414;2023-08-20T03:24:47;14.05;;;12.05;;
35648;SDS011;21768;48.562;13.414;2023-08-20T03:27:12;16.15;;;12.18;;
35648;SDS011;21768;48.562;13.414;2023-08-20T03:29:37;18.02;;;12.10;;
35648;SDS011;21768;48.562;13.414;2023-08-20T03:32:03;17.15;;;12.10;;
35648;SDS011;21768;48.562;13.414;2023-08-20T03:34:28;15.80;;;12.70;;
35648;SDS011;21768;48.562;13.414;2023-08-20T03:36:54;17.02;;;12.18;;
35648;SDS011;21768;48.562;13.414;2023-08-20T03:39:19;16.00;;;12.45;;
35648;SDS011;21768;48.562;13.414;2023-08-20T03:41:44;18.17;;;12.35;;
35648;SDS011;21768;48.562;13.414;2023-08-20T03:44:10;18.05;;;12.38;;
35648;SDS011;21768;48.562;13.414;2023-08-20T03:46:35;20.00;;;12.02;;
35648;SDS011;21768;48.562;13.414;2023-08-20T03:49:00;18.65;;;12.43;;
35648;SDS011;21768;48.562;13.414;2023-08-20T03:51:26;15.63;;;12.20;;
35648;SDS011;21768;48.562;13.414;2023-08-20T03:53:51;21.75;;;11.98;;
35648;SDS011;21768;48.562;13.414;2023-08-20T03:56:16;17.95;;;12.13;;
35648;SDS011;21768;48.562;13.414;2023-08-20T03:58:42;16.55;;;12.85;;
35648;SDS011;21768;48.562;13.414;2023-08-20T04:01:07;15.00;;;11.68;;
35648;SDS011;21768;48.562;13.414;2023-08-20T04:03:32;16.25;;;12.52;;
35648;SDS011;21768;48.562;13.414;2023-08-20T04:05:58;17.92;;;12.05;;
35648;SDS011;21768;48.562;13.414;2023-08-20T04:08:23;16.30;;;12.80;;
35648;SDS011;21768;48.562;13.414;2023-08-20T04:10:48;16.35;;;12.65;;
35648;SDS011;21768;48.562;13.414;2023-08-20T04:13:14;16.73;;;12.65;;
35648;SDS011;21768;48.562;13.414;2023-08-20T04:15:41;18.92;;;12.73;;
35648;SDS011;21768;48.562;13.414;2023-08-20T04:18:06;17.50;;;12.23;;
35648;SDS011;21768;48.562;13.414;2023-08-20T04:20:32;17.27;;;12.27;;
35648;SDS011;21768;48.562;13.414;2023-08-20T04:22:58;16.80;;;12.75;;
35648;SDS011;21768;48.562;13.414;2023-08-20T04:25:23;16.48;;;12.43;;
35648;SDS011;21768;48.562;13.414;2023-08-20T04:27:48;21.10;;;12.05;;
35648;SDS011;21768;48.562;13.414;2023-08-20T04:30:14;15.18;;;12.23;;
35648;SDS011;21768;48.562;13.414;2023-08-20T04:32:39;17.52;;;12.38;;
35648;SDS011;21768;48.562;13.414;2023-08-20T04:35:05;15.70;;;12.90;;
35648;SDS011;21768;48.562;13.414;2023-08-20T04:37:31;14.55;;;12.50;;
35648;SDS011;21768;48.562;13.414;2023-08-20T04:39:56;17.42;;;12.45;;
35648;SDS011;21768;48.562;13.414;2023-08-20T04:42:21;17.15;;;12.18;;
35648;SDS011;21768;48.562;13.414;2023-08-20T04:44:47;19.08;;;12.15;;
35648;SDS011;21768;48.562;13.414;2023-08-20T04:47:12;18.75;;;12.07;;
35648;SDS011;21768;48.562;13.414;2023-08-20T04:49:38;15.80;;;12.23;;
35648;SDS011;21768;48.562;13.414;2023-08-20T04:52:03;16.02;;;12.27;;
35648;SDS011;21768;48.562;13.414;2023-08-20T04:54:29;16.60;;;12.05;;
35648;SDS011;21768;48.562;13.414;2023-08-20T04:56:54;21.45;;;12.75;;
35648;SDS011;21768;48.562;13.414;2023-08-20T04:59:20;18.27;;;12.23;;
35648;SDS011;21768;48.562;13.414;2023-08-20T05:01:45;16.52;;;12.82;;
35648;SDS011;21768;48.562;13.414;2023-08-20T05:04:10;18.73;;;12.45;;
35648;SDS011;21768;48.562;13.414;2023-08-20T05:06:36;18.35;;;12.20;;
35648;SDS011;21768;48.562;13.414;2023-08-20T05:09:02;18.30;;;12.38;;
35648;SDS011;21768;48.562;13.414;2023-08-20T05:11:28;26.92;;;12.57;;
35648;SDS011;21768;48.562;13.414;2023-08-20T05:13:56;16.67;;;11.63;;
35648;SDS011;21768;48.562;13.414;2023-08-20T05:16:22;16.55;;;11.48;;
35648;SDS011;21768;48.562;13.414;2023-08-20T05:18:47;17.95;;;12.00;;
35648;SDS011;21768;48.562;13.414;2023-08-20T05:21:12;20.25;;;12.30;;
35648;SDS011;21768;48.562;13.414;2023-08-20T05:23:39;18.27;;;12.25;;
35648;SDS011;21768;48.562;13.414;2023-08-20T05:26:05;15.93;;;12.05;;
35648;SDS011;21768;48.562;13.414;2023-08-20T05:28:32;16.88;;;11.55;;
35648;SDS011;21768;48.562;13.414;2023-08-20T05:30:58;15.13;;;11.38;;
35648;SDS011;21768;48.562;13.414;2023-08-20T05:33:24;16.60;;;11.00;;
35648;SDS011;21768;48.562;13.414;2023-08-20T05:35:50;18.40;;;11.57;;
35648;SDS011;21768;48.562;13.414;2023-08-20T05:38:16;14.80;;;12.02;;
35648;SDS011;21768;48.562;13.414;2023-08-20T05:40:41;15.07;;;11.73;;
35648;SDS011;21768;48.562;13.414;2023-08-20T05:43:07;17.08;;;11.63;;
35648;SDS011;21768;48.562;13.414;2023-08-20T05:45:33;14.27;;;12.30;;
35648;SDS011;21768;48.562;13.414;2023-08-20T05:47:58;17.25;;;12.18;;
35648;SDS011;21768;48.562;13.414;2023-08-20T05:50:23;15.85;;;11.73;;
35648;SDS011;21768;48.562;13.414;2023-08-20T05:52:49;12.82;;;11.13;;
35648;SDS011;21768;48.562;13.414;2023-08-20T05:55:14;13.13;;;11.50;;
35648;SDS011;21768;48.562;13.414;2023-08-20T05:57:40;12.63;;;10.63;;
35648;SDS011;21768;48.562;13.414;2023-08-20T06:00:08;14.63;;;11.48;;
35648;SDS011;21768;48.562;13.414;2023-08-20T06:02:34;16.77;;;11.30;;
35648;SDS011;21768;48.562;13.414;2023-08-20T06:05:00;16.73;;;11.63;;
35648;SDS011;21768;48.562;13.414;2023-08-20T06:07:25;14.77;;;12.00;;
35648;SDS011;21768;48.562;13.414;2023-08-20T06:09:50;15.55;;;11.90;;
35648;SDS011;21768;48.562;13.414;2023-08-20T06:12:16;14.35;;;11.60;;
35648;SDS011;21768;48.562;13.414;2023-08-20T06:14:42;13.00;;;11.15;;
35648;SDS011;21768;48.562;13.414;2023-08-20T06:17:07;15.05;;;11.52;;
35648;SDS011;21768;48.562;13.414;2023-08-20T06:19:33;14.45;;;11.18;;
35648;SDS011;21768;48.562;13.414;2023-08-20T06:21:58;17.30;;;11.85;;
35648;SDS011;21768;48.562;13.414;2023-08-20T06:24:24;13.95;;;10.73;;
35648;SDS011;21768;48.562;13.414;2023-08-20T06:26:50;13.15;;;10.38;;
35648;SDS011;21768;48.562;13.414;2023-08-20T06:29:16;15.00;;;10.93;;
35648;SDS011;21768;48.562;13.414;2023-08-20T06:31:41;16.67;;;10.70;;
35648;SDS011;21768;48.562;13.414;2023-08-20T06:34:07;13.40;;;10.75;;
35648;SDS011;21768;48.562;13.414;2023-08-20T06:36:33;14.50;;;10.27;;
35648;SDS011;21768;48.562;13.414;2023-08-20T06:38:58;14.73;;;10.68;;
35648;SDS011;21768;48.562;13.414;2023-08-20T06:41:24;15.60;;;10.02;;
35648;SDS011;21768;48.562;13.414;2023-08-20T06:43:49;15.52;;;10.70;;
35648;SDS011;21768;48.562;13.414;2023-08-20T06:46:14;18.85;;;9.85;;
35648;SDS011;21768;48.562;13.414;2023-08-20T06:48:40;15.82;;;10.68;;
35648;SDS011;21768;48.562;13.414;2023-08-20T06:51:12;17.20;;;9.80;;
35648;SDS011;21768;48.562;13.414;2023-08-20T06:53:38;12.48;;;10.13;;
35648;SDS011;21768;48.562;13.414;2023-08-20T06:56:05;14.38;;;9.80;;
35648;SDS011;21768;48.562;13.414;2023-08-20T06:58:31;14.80;;;9.77;;
35648;SDS011;21768;48.562;13.414;2023-08-20T07:00:57;13.07;;;10.43;;
35648;SDS011;21768;48.562;13.414;2023-08-20T07:03:32;14.90;;;9.90;;
35648;SDS011;21768;48.562;13.414;2023-08-20T07:06:05;12.40;;;9.50;;
35648;SDS011;21768;48.562;13.414;2023-08-20T07:08:30;13.23;;;9.30;;
35648;SDS011;21768;48.562;13.414;2023-08-20T07:10:57;12.15;;;9.15;;
35648;SDS011;21768;48.562;13.414;2023-08-20T07:13:23;12.02;;;9.57;;
35648;SDS011;21768;48.562;13.414;2023-08-20T07:15:48;15.57;;;9.32;;
35648;SDS011;21768;48.562;13.414;2023-08-20T07:18:14;12.18;;;9.43;;
35648;SDS011;21768;48.562;13.414;2023-08-20T07:20:41;16.10;;;8.98;;
35648;SDS011;21768;48.562;13.414;2023-08-20T07:23:07;13.10;;;8.73;;
35648;SDS011;21768;48.562;13.414;2023-08-20T07:25:35;12.48;;;9.07;;
35648;SDS011;21768;48.562;13.414;2023-08-20T07:28:05;10.13;;;9.00;;
35648;SDS011;21768;48.562;13.414;2023-08-20T07:30:31;12.20;;;9.63;;
35648;SDS011;21768;48.562;13.414;2023-08-20T07:32:57;16.58;;;9.00;;
35648;SDS011;21768;48.562;13.414;2023-08-20T07:35:23;14.23;;;9.20;;
35648;SDS011;21768;48.562;13.414;2023-08-20T07:37:48;14.80;;;9.40;;
35648;SDS011;21768;48.562;13.414;2023-08-20T07:40:14;12.40;;;9.07;;
35648;SDS011;21768;48.562;13.414;2023-08-20T07:42:42;12.20;;;9.10;;
35648;SDS011;21768;48.562;13.414;2023-08-20T07:45:08;16.58;;;11.57;;
35648;SDS011;21768;48.562;13.414;2023-08-20T07:47:35;28.40;;;17.88;;
35648;SDS011;21768;48.562;13.414;2023-08-20T07:50:01;11.30;;;9.05;;
35648;SDS011;21768;48.562;13.414;2023-08-20T07:52:26;14.30;;;8.40;;
35648;SDS011;21768;48.562;13.414;2023-08-20T07:54:51;16.73;;;12.15;;
35648;SDS011;21768;48.562;13.414;2023-08-20T07:57:17;10.77;;;8.55;;
35648;SDS011;21768;48.562;13.414;2023-08-20T07:59:42;25.30;;;16.38;;
35648;SDS011;21768;48.562;13.414;2023-08-20T08:02:07;11.90;;;9.65;;
35648;SDS011;21768;48.562;13.414;2023-08-20T08:04:33;9.02;;;8.10;;
35648;SDS011;21768;48.562;13.414;2023-08-20T08:06:59;10.82;;;8.10;;
35648;SDS011;21768;48.562;13.414;2023-08-20T08:09:29;10.85;;;8.30;;
35648;SDS011;21768;48.562;13.414;2023-08-20T08:11:55;10.20;;;8.40;;
35648;SDS011;21768;48.562;13.414;2023-08-20T08:14:21;8.23;;;7.43;;
35648;SDS011;21768;48.562;13.414;2023-08-20T08:16:47;10.20;;;7.68;;
35648;SDS011;21768;48.562;13.414;2023-08-20T08:19:13;9.98;;;7.55;;
35648;SDS011;21768;48.562;13.414;2023-08-20T08:21:38;8.82;;;6.90;;
35648;SDS011;21768;48.562;13.414;2023-08-20T08:24:04;7.43;;;6.60;;
35648;SDS011;21768;48.562;13.414;2023-08-20T08:26:30;8.80;;;7.10;;
35648;SDS011;21768;48.562;13.414;2023-08-20T08:28:56;7.95;;;6.97;;
35648;SDS011;21768;48.562;13.414;2023-08-20T08:31:23;9.27;;;7.28;;
35648;SDS011;21768;48.562;13.414;2023-08-20T08:33:48;9.30;;;7.60;;
35648;SDS011;21768;48.562;13.414;2023-08-20T08:36:14;10.25;;;6.80;;
35648;SDS011;21768;48.562;13.414;2023-08-20T08:38:41;7.20;;;6.50;;
35648;SDS011;21768;48.562;13.414;2023-08-20T08:41:10;9.95;;;6.47;;
35648;SDS011;21768;48.562;13.414;2023-08-20T08:43:37;8.27;;;6.57;;
35648;SDS011;21768;48.562;13.414;2023-08-20T08:46:04;7.63;;;6.43;;
35648;SDS011;21768;48.562;13.414;2023-08-20T08:48:33;7.85;;;6.20;;
35648;SDS011;21768;48.562;13.414;2023-08-20T08:51:00;11.18;;;6.28;;
35648;SDS011;21768;48.562;13.414;2023-08-20T08:53:26;8.07;;;6.10;;
35648;SDS011;21768;48.562;13.414;2023-08-20T08:55:52;8.60;;;6.50;;
35648;SDS011;21768;48.562;13.414;2023-08-20T08:58:17;14.23;;;6.05;;
35648;SDS011;21768;48.562;13.414;2023-08-20T09:00:42;8.23;;;6.00;;
35648;SDS011;21768;48.562;13.414;2023-08-20T09:03:08;8.32;;;5.88;;
35648;SDS011;21768;48.562;13.414;2023-08-20T09:05:44;7.68;;;5.93;;
35648;SDS011;21768;48.562;13.414;2023-08-20T09:08:20;10.50;;;6.25;;
35648;SDS011;21768;48.562;13.414;2023-08-20T09:10:52;9.50;;;5.65;;
35648;SDS011;21768;48.562;13.414;2023-08-20T09:13:22;6.80;;;5.95;;
35648;SDS011;21768;48.562;13.414;2023-08-20T09:16:09;8.80;;;6.03;;
35648;SDS011;21768;48.562;13.414;2023-08-20T09:21:08;7.15;;;5.78;;
35648;SDS011;21768;48.562;13.414;2023-08-20T09:23:34;9.77;;;6.35;;
35648;SDS011;21768;48.562;13.414;2023-08-20T09:26:01;7.68;;;5.75;;
35648;SDS011;21768;48.562;13.414;2023-08-20T09:28:28;8.38;;;5.72;;
35648;SDS011;21768;48.562;13.414;2023-08-20T09:30:57;7.05;;;5.80;;
35648;SDS011;21768;48.562;13.414;2023-08-20T09:33:23;10.10;;;5.55;;
35648;SDS011;21768;48.562;13.414;2023-08-20T09:35:50;9.68;;;5.43;;
35648;SDS011;21768;48.562;13.414;2023-08-20T09:38:19;6.57;;;5.88;;
35648;SDS011;21768;48.562;13.414;2023-08-20T09:40:53;8.10;;;5.35;;
35648;SDS011;21768;48.562;13.414;2023-08-20T09:43:23;6.63;;;5.85;;
35648;SDS011;21768;48.562;13.414;2023-08-20T09:45:54;7.22;;;6.35;;
35648;SDS011;21768;48.562;13.414;2023-08-20T09:48:20;7.05;;;5.95;;
35648;SDS011;21768;48.562;13.414;2023-08-20T09:50:47;6.78;;;5.63;;
35648;SDS011;21768;48.562;13.414;2023-08-20T09:53:18;9.48;;;5.78;;
35648;SDS011;21768;48.562;13.414;2023-08-20T09:55:51;7.35;;;5.90;;
35648;SDS011;21768;48.562;13.414;2023-08-20T09:58:19;11.25;;;6.00;;
35648;SDS011;21768;48.562;13.414;2023-08-20T10:00:50;8.43;;;5.95;;
35648;SDS011;21768;48.562;13.414;2023-08-20T10:03:16;7.57;;;6.18;;
35648;SDS011;21768;48.562;13.414;2023-08-20T10:05:45;9.75;;;5.80;;
35648;SDS011;21768;48.562;13.414;2023-08-20T10:08:14;6.20;;;5.60;;
35648;SDS011;21768;48.562;13.414;2023-08-20T10:10:40;9.20;;;5.82;;
35648;SDS011;21768;48.562;13.414;2023-08-20T10:13:06;7.10;;;5.88;;
35648;SDS011;21768;48.562;13.414;2023-08-20T10:15:32;13.02;;;8.27;;
35648;SDS011;21768;48.562;13.414;2023-08-20T10:18:01;6.88;;;6.18;;
35648;SDS011;21768;48.562;13.414;2023-08-20T10:20:28;6.43;;;5.78;;
35648;SDS011;21768;48.562;13.414;2023-08-20T10:22:57;10.18;;;5.60;;
35648;SDS011;21768;48.562;13.414;2023-08-20T10:25:25;7.47;;;5.10;;
35648;SDS011;21768;48.562;13.414;2023-08-20T10:27:51;9.23;;;5.47;;
35648;SDS011;21768;48.562;13.414;2023-08-20T10:30:26;7.38;;;5.05;;
35648;SDS011;21768;48.562;13.414;2023-08-20T10:32:52;6.00;;;5.20;;
35648;SDS011;21768;48.562;13.414;2023-08-20T10:35:25;7.43;;;5.80;;
35648;SDS011;21768;48.562;13.414;2023-08-20T10:38:02;7.65;;;5.50;;
35648;SDS011;21768;48.562;13.414;2023-08-20T10:46:17;6.65;;;5.18;;
35648;SDS011;21768;48.562;13.414;2023-08-20T10:59:22;8.32;;;5.00;;
35648;SDS011;21768;48.562;13.414;2023-08-20T11:01:51;5.20;;;4.65;;
35648;SDS011;21768;48.562;13.414;2023-08-20T11:04:18;5.15;;;4.45;;
35648;SDS011;21768;48.562;13.414;2023-08-20T11:06:46;4.70;;;4.20;;
35648;SDS011;21768;48.562;13.414;2023-08-20T11:09:14;5.05;;;4.30;;
35648;SDS011;21768;48.562;13.414;2023-08-20T11:11:40;7.97;;;4.40;;
35648;SDS011;21768;48.562;13.414;2023-08-20T11:14:07;5.13;;;4.40;;
35648;SDS011;21768;48.562;13.414;2023-08-20T11:16:36;9.23;;;4.35;;
35648;SDS011;21768;48.562;13.414;2023-08-20T11:19:03;5.13;;;4.47;;
35648;SDS011;21768;48.562;13.414;2023-08-20T11:21:32;7.47;;;4.50;;
35648;SDS011;21768;48.562;13.414;2023-08-20T11:23:59;4.88;;;4.13;;
35648;SDS011;21768;48.562;13.414;2023-08-20T11:26:26;7.53;;;4.05;;
35648;SDS011;21768;48.562;13.414;2023-08-20T11:28:51;5.30;;;4.32;;
35648;SDS011;21768;48.562;13.414;2023-08-20T11:31:17;8.32;;;5.57;;
35648;SDS011;21768;48.562;13.414;2023-08-20T11:33:42;6.45;;;4.78;;
35648;SDS011;21768;48.562;13.414;2023-08-20T11:36:07;13.90;;;8.07;;
35648;SDS011;21768;48.562;13.414;2023-08-20T11:38:33;5.95;;;5.35;;
35648;SDS011;21768;48.562;13.414;2023-08-20T11:40:58;13.52;;;9.38;;
35648;SDS011;21768;48.562;13.414;2023-08-20T11:43:26;6.75;;;4.22;;
35648;SDS011;21768;48.562;13.414;2023-08-20T11:45:52;8.70;;;4.60;;
35648;SDS011;21768;48.562;13.414;2023-08-20T11:48:19;5.18;;;4.38;;
35648;SDS011;21768;48.562;13.414;2023-08-20T11:50:46;6.65;;;4.50;;
35648;SDS011;21768;48.562;13.414;2023-08-20T11:53:12;4.50;;;3.92;;
35648;SDS011;21768;48.562;13.414;2023-08-20T11:55:40;5.90;;;4.35;;
35648;SDS011;21768;48.562;13.414;2023-08-20T11:58:13;6.82;;;4.43;;
35648;SDS011;21768;48.562;13.414;2023-08-20T12:00:39;9.60;;;4.78;;
35648;SDS011;21768;48.562;13.414;2023-08-20T12:03:05;6.75;;;4.40;;
35648;SDS011;21768;48.562;13.414;2023-08-20T12:05:31;4.78;;;4.25;;
35648;SDS011;21768;48.562;13.414;2023-08-20T12:07:57;7.43;;;4.95;;
35648;SDS011;21768;48.562;13.414;2023-08-20T12:10:24;4.63;;;4.07;;
35648;SDS011;21768;48.562;13.414;2023-08-20T12:12:51;9.65;;;4.85;;
35648;SDS011;21768;48.562;13.414;2023-08-20T12:15:17;6.45;;;4.47;;
35648;SDS011;21768;48.562;13.414;2023-08-20T12:18:03;8.25;;;4.72;;
35648;SDS011;21768;48.562;13.414;2023-08-20T12:20:29;6.88;;;4.55;;
35648;SDS011;21768;48.562;13.414;2023-08-20T12:23:00;7.60;;;5.38;;
35648;SDS011;21768;48.562;13.414;2023-08-20T12:25:32;5.13;;;4.63;;
35648;SDS011;21768;48.562;13.414;2023-08-20T12:28:01;4.97;;;4.47;;
35648;SDS011;21768;48.562;13.414;2023-08-20T12:30:28;5.93;;;4.35;;
35648;SDS011;21768;48.562;13.414;2023-08-20T12:32:53;8.93;;;4.97;;
35648;SDS011;21768;48.562;13.414;2023-08-20T12:35:19;8.68;;;4.93;;
35648;SDS011;21768;48.562;13.414;2023-08-20T12:37:44;5.43;;;4.90;;
35648;SDS011;21768;48.562;13.414;2023-08-20T12:40:10;10.05;;;4.75;;
35648;SDS011;21768;48.562;13.414;2023-08-20T12:42:37;6.07;;;4.60;;
35648;SDS011;21768;48.562;13.414;2023-08-20T12:45:07;7.45;;;4.80;;
35648;SDS011;21768;48.562;13.414;2023-08-20T12:47:33;7.35;;;5.07;;
35648;SDS011;21768;48.562;13.414;2023-08-20T12:49:59;5.68;;;4.88;;
35648;SDS011;21768;48.562;13.414;2023-08-20T12:52:24;11.55;;;4.72;;
35648;SDS011;21768;48.562;13.414;2023-08-20T12:54:50;6.03;;;4.65;;
35648;SDS011;21768;48.562;13.414;2023-08-20T12:57:15;5.93;;;4.72;;
35648;SDS011;21768;48.562;13.414;2023-08-20T12:59:40;7.18;;;4.88;;
35648;SDS011;21768;48.562;13.414;2023-08-20T13:02:06;5.43;;;4.63;;
35648;SDS011;21768;48.562;13.414;2023-08-20T13:04:31;7.65;;;4.80;;
35648;SDS011;21768;48.562;13.414;2023-08-20T13:06:57;5.75;;;4.80;;
35648;SDS011;21768;48.562;13.414;2023-08-20T13:09:23;6.32;;;4.38;;
35648;SDS011;21768;48.562;13.414;2023-08-20T13:11:48;9.07;;;4.32;;
35648;SDS011;21768;48.562;13.414;2023-08-20T13:14:17;5.05;;;4.53;;
35648;SDS011;21768;48.562;13.414;2023-08-20T13:16:42;7.93;;;4.50;;
35648;SDS011;21768;48.562;13.414;2023-08-20T13:19:08;6.05;;;4.70;;
35648;SDS011;21768;48.562;13.414;2023-08-20T13:21:33;5.45;;;4.47;;
35648;SDS011;21768;48.562;13.414;2023-08-20T13:23:59;8.05;;;4.97;;
35648;SDS011;21768;48.562;13.414;2023-08-20T13:26:24;7.55;;;4.68;;
35648;SDS011;21768;48.562;13.414;2023-08-20T13:28:49;5.05;;;4.40;;
35648;SDS011;21768;48.562;13.414;2023-08-20T13:31:15;5.63;;;4.47;;
35648;SDS011;21768;48.562;13.414;2023-08-20T13:33:40;6.45;;;4.65;;
35648;SDS011;21768;48.562;13.414;2023-08-20T13:36:06;10.70;;;4.70;;
35648;SDS011;21768;48.562;13.414;2023-08-20T13:38:32;10.45;;;4.45;;
35648;SDS011;21768;48.562;13.414;2023-08-20T13:40:58;8.68;;;4.97;;
35648;SDS011;21768;48.562;13.414;2023-08-20T13:43:23;6.65;;;4.63;;
35648;SDS011;21768;48.562;13.414;2023-08-20T13:45:48;6.47;;;5.00;;
35648;SDS011;21768;48.562;13.414;2023-08-20T13:48:14;6.18;;;4.45;;
35648;SDS011;21768;48.562;13.414;2023-08-20T13:50:39;5.00;;;4.47;;
35648;SDS011;21768;48.562;13.414;2023-08-20T13:53:05;6.18;;;4.82;;
35648;SDS011;21768;48.562;13.414;2023-08-20T13:55:30;7.05;;;4.22;;
35648;SDS011;21768;48.562;13.414;2023-08-20T13:57:56;9.15;;;4.38;;
35648;SDS011;21768;48.562;13.414;2023-08-20T14:00:22;7.93;;;4.75;;
35648;SDS011;21768;48.562;13.414;2023-08-20T14:02:47;7.40;;;4.57;;
35648;SDS011;21768;48.562;13.414;2023-08-20T14:05:13;5.18;;;4.47;;
35648;SDS011;21768;48.562;13.414;2023-08-20T14:07:38;6.45;;;4.38;;
35648;SDS011;21768;48.562;13.414;2023-08-20T14:10:04;4.57;;;4.18;;
35648;SDS011;21768;48.562;13.414;2023-08-20T14:12:30;5.05;;;4.25;;
35648;SDS011;21768;48.562;13.414;2023-08-20T14:14:55;6.53;;;3.97;;
35648;SDS011;21768;48.562;13.414;2023-08-20T14:17:21;6.68;;;5.00;;
35648;SDS011;21768;48.562;13.414;2023-08-20T14:19:47;6.18;;;4.00;;
35648;SDS011;21768;48.562;13.414;2023-08-20T14:22:12;4.70;;;3.78;;
35648;SDS011;21768;48.562;13.414;2023-08-20T14:24:37;4.95;;;4.40;;
35648;SDS011;21768;48.562;13.414;2023-08-20T14:27:03;6.50;;;4.30;;
35648;SDS011;21768;48.562;13.414;2023-08-20T14:29:28;7.43;;;4.35;;
35648;SDS011;21768;48.562;13.414;2023-08-20T14:31:54;10.02;;;4.28;;
35648;SDS011;21768;48.562;13.414;2023-08-20T14:34:19;6.35;;;3.95;;
35648;SDS011;21768;48.562;13.414;2023-08-20T14:36:44;10.50;;;5.00;;
35648;SDS011;21768;48.562;13.414;2023-08-20T14:39:10;5.25;;;4.00;;
35648;SDS011;21768;48.562;13.414;2023-08-20T14:41:35;5.82;;;4.30;;
35648;SDS011;21768;48.562;13.414;2023-08-20T14:44:00;5.10;;;4.53;;
35648;SDS011;21768;48.562;13.414;2023-08-20T14:46:27;6.75;;;4.38;;
35648;SDS011;21768;48.562;13.414;2023-08-20T14:48:52;8.38;;;4.30;;